sensor_id;sensor_type;location;lat;lon;timestamp;temperature;humidity
11650;DHT22;5881;48.522;7.682;2022-08-21T00:01:46;16.20;99.90
11650;DHT22;5881;48.522;7.682;2022-08-21T00:04:12;16.10;99.90
11650;DHT22;5881;48.522;7.682;2022-08-21T00:06:38;16.00;99.90
11650;DHT22;5881;48.522;7.682;2022-08-21T00:09:06;16.00;99.90
11650;DHT22;5881;48.522;7.682;2022-08-21T00:11:32;15.90;99.90
11650;DHT22;5881;48.522;7.682;2022-08-21T00:13:58;15.90;99.90
11650;DHT22;5881;48.522;7.682;2022-08-21T00:16:24;15.80;99.90
11650;DHT22;5881;48.522;7.682;2022-08-21T00:18:49;15.80;99.90
11650;DHT22;5881;48.522;7.682;2022-08-21T00:21:16;15.70;99.90
11650;DHT22;5881;48.522;7.682;2022-08-21T00:23:42;15.70;99.90
11650;DHT22;5881;48.522;7.682;2022-08-21T00:26:09;15.70;99.90
11650;DHT22;5881;48.522;7.682;2022-08-21T00:28:35;15.70;99.90
11650;DHT22;5881;48.522;7.682;2022-08-21T00:31:01;15.70;99.90
11650;DHT22;5881;48.522;7.682;2022-08-21T00:33:29;15.70;99.90
11650;DHT22;5881;48.522;7.682;2022-08-21T00:35:55;15.70;99.90
11650;DHT22;5881;48.522;7.682;2022-08-21T00:38:21;15.80;99.90
11650;DHT22;5881;48.522;7.682;2022-08-21T00:40:55;15.70;99.90
11650;DHT22;5881;48.522;7.682;2022-08-21T00:43:26;15.70;99.90
11650;DHT22;5881;48.522;7.682;2022-08-21T00:45:53;15.60;99.90
11650;DHT22;5881;48.522;7.682;2022-08-21T00:48:20;15.60;99.90
11650;DHT22;5881;48.522;7.682;2022-08-21T00:50:55;15.50;99.90
11650;DHT22;5881;48.522;7.682;2022-08-21T00:53:22;15.60;99.90
11650;DHT22;5881;48.522;7.682;2022-08-21T00:55:48;15.70;99.90
11650;DHT22;5881;48.522;7.682;2022-08-21T00:58:14;15.60;99.90
11650;DHT22;5881;48.522;7.682;2022-08-21T01:00:43;15.60;99.90
11650;DHT22;5881;48.522;7.682;2022-08-21T01:03:16;15.60;99.90
11650;DHT22;5881;48.522;7.682;2022-08-21T01:05:42;15.60;99.90
11650;DHT22;5881;48.522;7.682;2022-08-21T01:08:09;15.50;99.90
11650;DHT22;5881;48.522;7.682;2022-08-21T01:10:36;15.50;99.90
11650;DHT22;5881;48.522;7.682;2022-08-21T01:13:04;15.50;99.90
11650;DHT22;5881;48.522;7.682;2022-08-21T01:15:35;15.40;99.90
11650;DHT22;5881;48.522;7.682;2022-08-21T01:18:05;15.40;99.90
11650;DHT22;5881;48.522;7.682;2022-08-21T01:20:31;15.40;99.90
11650;DHT22;5881;48.522;7.682;2022-08-21T01:22:57;15.30;99.90
11650;DHT22;5881;48.522;7.682;2022-08-21T01:25:23;15.20;99.90
11650;DHT22;5881;48.522;7.682;2022-08-21T01:27:49;15.20;99.90
11650;DHT22;5881;48.522;7.682;2022-08-21T01:30:21;15.20;99.90
11650;DHT22;5881;48.522;7.682;2022-08-21T01:32:48;15.20;99.90
11650;DHT22;5881;48.522;7.682;2022-08-21T01:35:15;15.10;99.90
11650;DHT22;5881;48.522;7.682;2022-08-21T01:37:42;15.10;99.90
11650;DHT22;5881;48.522;7.682;2022-08-21T01:40:09;15.10;99.90
11650;DHT22;5881;48.522;7.682;2022-08-21T01:42:36;14.90;99.90
11650;DHT22;5881;48.522;7.682;2022-08-21T01:45:04;14.80;99.90
11650;DHT22;5881;48.522;7.682;2022-08-21T01:47:29;14.80;99.90
11650;DHT22;5881;48.522;7.682;2022-08-21T01:49:55;14.60;99.90
11650;DHT22;5881;48.522;7.682;2022-08-21T01:52:21;14.60;99.90
11650;DHT22;5881;48.522;7.682;2022-08-21T01:54:46;14.50;99.90
11650;DHT22;5881;48.522;7.682;2022-08-21T01:57:13;14.50;99.90
11650;DHT22;5881;48.522;7.682;2022-08-21T01:59:39;14.50;99.90
11650;DHT22;5881;48.522;7.682;2022-08-21T02:02:05;14.50;99.90
11650;DHT22;5881;48.522;7.682;2022-08-21T02:04:31;14.70;99.90
11650;DHT22;5881;48.522;7.682;2022-08-21T02:06:57;14.60;99.90
11650;DHT22;5881;48.522;7.682;2022-08-21T02:09:22;14.50;99.90
11650;DHT22;5881;48.522;7.682;2022-08-21T02:11:48;14.40;99.90
11650;DHT22;5881;48.522;7.682;2022-08-21T02:14:14;14.30;99.90
11650;DHT22;5881;48.522;7.682;2022-08-21T02:16:43;14.30;99.90
11650;DHT22;5881;48.522;7.682;2022-08-21T02:19:09;14.20;99.90
11650;DHT22;5881;48.522;7.682;2022-08-21T02:21:35;14.30;99.90
11650;DHT22;5881;48.522;7.682;2022-08-21T02:24:01;14.40;99.90
11650;DHT22;5881;48.522;7.682;2022-08-21T02:26:26;14.30;99.90
11650;DHT22;5881;48.522;7.682;2022-08-21T02:28:53;14.40;99.90
11650;DHT22;5881;48.522;7.682;2022-08-21T02:31:18;14.50;99.90
11650;DHT22;5881;48.522;7.682;2022-08-21T02:33:44;14.50;99.90
11650;DHT22;5881;48.522;7.682;2022-08-21T02:36:11;14.50;99.90
11650;DHT22;5881;48.522;7.682;2022-08-21T02:38:39;14.60;99.90
11650;DHT22;5881;48.522;7.682;2022-08-21T02:41:07;14.60;99.90
11650;DHT22;5881;48.522;7.682;2022-08-21T02:43:33;14.60;99.90
11650;DHT22;5881;48.522;7.682;2022-08-21T02:45:59;14.60;99.90
11650;DHT22;5881;48.522;7.682;2022-08-21T02:48:30;14.50;99.90
11650;DHT22;5881;48.522;7.682;2022-08-21T02:51:07;14.60;99.90
11650;DHT22;5881;48.522;7.682;2022-08-21T02:53:34;14.60;99.90
11650;DHT22;5881;48.522;7.682;2022-08-21T02:56:03;14.50;99.90
11650;DHT22;5881;48.522;7.682;2022-08-21T02:58:32;14.50;99.90
11650;DHT22;5881;48.522;7.682;2022-08-21T03:00:58;14.40;99.90
11650;DHT22;5881;48.522;7.682;2022-08-21T03:03:26;14.40;99.90
11650;DHT22;5881;48.522;7.682;2022-08-21T03:05:52;14.30;99.90
11650;DHT22;5881;48.522;7.682;2022-08-21T03:08:18;14.40;99.90
11650;DHT22;5881;48.522;7.682;2022-08-21T03:10:47;14.40;99.90
11650;DHT22;5881;48.522;7.682;2022-08-21T03:13:13;14.50;99.90
11650;DHT22;5881;48.522;7.682;2022-08-21T03:15:39;14.30;99.90
11650;DHT22;5881;48.522;7.682;2022-08-21T03:18:06;14.30;99.90
11650;DHT22;5881;48.522;7.682;2022-08-21T03:20:34;14.30;99.90
11650;DHT22;5881;48.522;7.682;2022-08-21T03:23:01;14.30;99.90
11650;DHT22;5881;48.522;7.682;2022-08-21T03:25:29;14.30;99.90
11650;DHT22;5881;48.522;7.682;2022-08-21T03:27:58;14.20;99.90
11650;DHT22;5881;48.522;7.682;2022-08-21T03:30:23;14.20;99.90
11650;DHT22;5881;48.522;7.682;2022-08-21T03:32:49;14.20;99.90
11650;DHT22;5881;48.522;7.682;2022-08-21T03:35:17;14.10;99.90
11650;DHT22;5881;48.522;7.682;2022-08-21T03:37:43;14.10;99.90
11650;DHT22;5881;48.522;7.682;2022-08-21T03:40:10;14.10;99.90
11650;DHT22;5881;48.522;7.682;2022-08-21T03:42:36;14.10;99.90
11650;DHT22;5881;48.522;7.682;2022-08-21T03:45:03;14.00;99.90
11650;DHT22;5881;48.522;7.682;2022-08-21T03:47:28;14.00;99.90
11650;DHT22;5881;48.522;7.682;2022-08-21T03:49:54;14.00;99.90
11650;DHT22;5881;48.522;7.682;2022-08-21T03:52:20;13.90;99.90
11650;DHT22;5881;48.522;7.682;2022-08-21T03:54:45;13.80;99.90
11650;DHT22;5881;48.522;7.682;2022-08-21T03:57:11;13.90;99.90
11650;DHT22;5881;48.522;7.682;2022-08-21T03:59:37;13.80;99.90
11650;DHT22;5881;48.522;7.682;2022-08-21T04:02:05;13.80;99.90
11650;DHT22;5881;48.522;7.682;2022-08-21T04:04:32;13.70;99.90
11650;DHT22;5881;48.522;7.682;2022-08-21T04:06:58;13.70;99.90
11650;DHT22;5881;48.522;7.682;2022-08-21T04:09:25;13.70;99.90
11650;DHT22;5881;48.522;7.682;2022-08-21T04:11:51;13.70;99.90
11650;DHT22;5881;48.522;7.682;2022-08-21T04:14:17;13.80;99.90
11650;DHT22;5881;48.522;7.682;2022-08-21T04:16:43;13.80;99.90
11650;DHT22;5881;48.522;7.682;2022-08-21T04:19:10;13.80;99.90
11650;DHT22;5881;48.522;7.682;2022-08-21T04:21:36;13.70;99.90
11650;DHT22;5881;48.522;7.682;2022-08-21T04:24:03;13.90;99.90
11650;DHT22;5881;48.522;7.682;2022-08-21T04:26:28;14.20;99.90
11650;DHT22;5881;48.522;7.682;2022-08-21T04:28:56;14.10;99.90
11650;DHT22;5881;48.522;7.682;2022-08-21T04:31:23;14.10;99.90
11650;DHT22;5881;48.522;7.682;2022-08-21T04:33:49;13.90;99.90
11650;DHT22;5881;48.522;7.682;2022-08-21T04:36:16;14.00;99.90
11650;DHT22;5881;48.522;7.682;2022-08-21T04:38:41;14.00;99.90
11650;DHT22;5881;48.522;7.682;2022-08-21T04:41:07;13.90;99.90
11650;DHT22;5881;48.522;7.682;2022-08-21T04:43:33;13.90;99.90
11650;DHT22;5881;48.522;7.682;2022-08-21T04:45:59;14.00;99.90
11650;DHT22;5881;48.522;7.682;2022-08-21T04:48:26;13.90;99.90
11650;DHT22;5881;48.522;7.682;2022-08-21T04:55:57;14.00;99.90
11650;DHT22;5881;48.522;7.682;2022-08-21T04:58:26;14.00;99.90
11650;DHT22;5881;48.522;7.682;2022-08-21T05:00:54;14.00;99.90
11650;DHT22;5881;48.522;7.682;2022-08-21T05:03:21;14.20;99.90
11650;DHT22;5881;48.522;7.682;2022-08-21T05:05:48;14.20;99.90
11650;DHT22;5881;48.522;7.682;2022-08-21T05:08:16;14.20;99.90
11650;DHT22;5881;48.522;7.682;2022-08-21T05:10:44;14.30;99.90
11650;DHT22;5881;48.522;7.682;2022-08-21T05:13:11;14.40;99.90
11650;DHT22;5881;48.522;7.682;2022-08-21T05:15:38;14.50;99.90
11650;DHT22;5881;48.522;7.682;2022-08-21T05:18:04;14.60;99.90
11650;DHT22;5881;48.522;7.682;2022-08-21T05:20:30;14.90;99.90
11650;DHT22;5881;48.522;7.682;2022-08-21T05:22:56;15.20;99.90
11650;DHT22;5881;48.522;7.682;2022-08-21T05:25:22;15.50;99.90
11650;DHT22;5881;48.522;7.682;2022-08-21T05:27:47;16.10;99.90
11650;DHT22;5881;48.522;7.682;2022-08-21T05:30:13;16.50;99.90
11650;DHT22;5881;48.522;7.682;2022-08-21T05:32:39;17.30;99.90
11650;DHT22;5881;48.522;7.682;2022-08-21T05:35:05;18.00;1.00
11650;DHT22;5881;48.522;7.682;2022-08-21T05:37:31;18.40;99.90
11650;DHT22;5881;48.522;7.682;2022-08-21T05:39:58;19.00;1.00
11650;DHT22;5881;48.522;7.682;2022-08-21T05:42:24;19.20;1.00
11650;DHT22;5881;48.522;7.682;2022-08-21T05:44:49;19.80;1.00
11650;DHT22;5881;48.522;7.682;2022-08-21T05:47:15;20.10;99.90
11650;DHT22;5881;48.522;7.682;2022-08-21T05:49:40;21.00;99.90
11650;DHT22;5881;48.522;7.682;2022-08-21T05:52:06;20.60;99.90
11650;DHT22;5881;48.522;7.682;2022-08-21T05:54:32;20.70;99.90
11650;DHT22;5881;48.522;7.682;2022-08-21T05:56:58;21.50;99.90
11650;DHT22;5881;48.522;7.682;2022-08-21T05:59:23;21.40;99.90
11650;DHT22;5881;48.522;7.682;2022-08-21T06:01:49;20.80;99.90
11650;DHT22;5881;48.522;7.682;2022-08-21T06:04:16;20.40;99.90
11650;DHT22;5881;48.522;7.682;2022-08-21T06:06:42;21.20;99.90
11650;DHT22;5881;48.522;7.682;2022-08-21T06:09:07;22.70;99.40
11650;DHT22;5881;48.522;7.682;2022-08-21T06:11:33;22.40;58.10
11650;DHT22;5881;48.522;7.682;2022-08-21T06:13:59;22.10;29.60
11650;DHT22;5881;48.522;7.682;2022-08-21T06:16:26;23.00;1.20
11650;DHT22;5881;48.522;7.682;2022-08-21T06:18:51;24.20;1.00
11650;DHT22;5881;48.522;7.682;2022-08-21T06:21:18;23.60;1.00
11650;DHT22;5881;48.522;7.682;2022-08-21T06:23:44;23.40;1.00
11650;DHT22;5881;48.522;7.682;2022-08-21T06:26:12;24.20;1.00
11650;DHT22;5881;48.522;7.682;2022-08-21T06:28:38;24.30;1.00
11650;DHT22;5881;48.522;7.682;2022-08-21T06:31:16;23.70;1.00
11650;DHT22;5881;48.522;7.682;2022-08-21T06:33:42;24.80;1.00
11650;DHT22;5881;48.522;7.682;2022-08-21T06:36:08;23.90;1.00
11650;DHT22;5881;48.522;7.682;2022-08-21T06:38:34;24.00;1.00
11650;DHT22;5881;48.522;7.682;2022-08-21T06:41:00;24.80;1.00
11650;DHT22;5881;48.522;7.682;2022-08-21T06:43:26;25.60;1.00
11650;DHT22;5881;48.522;7.682;2022-08-21T06:45:52;24.80;1.00
11650;DHT22;5881;48.522;7.682;2022-08-21T06:48:18;25.00;1.00
11650;DHT22;5881;48.522;7.682;2022-08-21T06:50:43;25.40;1.00
11650;DHT22;5881;48.522;7.682;2022-08-21T06:53:12;25.20;1.00
11650;DHT22;5881;48.522;7.682;2022-08-21T06:55:39;25.50;1.00
11650;DHT22;5881;48.522;7.682;2022-08-21T06:58:05;25.30;1.00
11650;DHT22;5881;48.522;7.682;2022-08-21T07:00:32;25.00;1.00
11650;DHT22;5881;48.522;7.682;2022-08-21T07:02:58;26.80;1.00
11650;DHT22;5881;48.522;7.682;2022-08-21T07:05:28;25.60;1.00
11650;DHT22;5881;48.522;7.682;2022-08-21T07:07:55;26.30;1.00
11650;DHT22;5881;48.522;7.682;2022-08-21T07:10:21;25.40;1.00
11650;DHT22;5881;48.522;7.682;2022-08-21T07:12:47;26.80;1.00
11650;DHT22;5881;48.522;7.682;2022-08-21T07:15:13;27.00;1.00
11650;DHT22;5881;48.522;7.682;2022-08-21T07:17:38;27.00;1.00
11650;DHT22;5881;48.522;7.682;2022-08-21T07:20:05;27.20;1.00
11650;DHT22;5881;48.522;7.682;2022-08-21T07:22:32;27.20;1.00
11650;DHT22;5881;48.522;7.682;2022-08-21T07:24:58;28.50;1.00
11650;DHT22;5881;48.522;7.682;2022-08-21T07:27:24;29.20;1.00
11650;DHT22;5881;48.522;7.682;2022-08-21T07:29:49;28.90;1.00
11650;DHT22;5881;48.522;7.682;2022-08-21T07:32:15;28.10;1.00
11650;DHT22;5881;48.522;7.682;2022-08-21T07:34:41;27.70;1.00
11650;DHT22;5881;48.522;7.682;2022-08-21T07:37:07;27.80;1.00
11650;DHT22;5881;48.522;7.682;2022-08-21T07:39:32;28.30;1.00
11650;DHT22;5881;48.522;7.682;2022-08-21T07:41:58;27.70;1.00
11650;DHT22;5881;48.522;7.682;2022-08-21T07:44:24;28.50;1.00
11650;DHT22;5881;48.522;7.682;2022-08-21T07:46:49;29.00;1.00
11650;DHT22;5881;48.522;7.682;2022-08-21T07:49:15;29.40;1.00
11650;DHT22;5881;48.522;7.682;2022-08-21T07:51:40;28.60;1.00
11650;DHT22;5881;48.522;7.682;2022-08-21T07:54:06;27.90;1.00
11650;DHT22;5881;48.522;7.682;2022-08-21T07:56:33;28.70;1.00
11650;DHT22;5881;48.522;7.682;2022-08-21T07:58:59;28.40;1.00
11650;DHT22;5881;48.522;7.682;2022-08-21T08:01:25;29.50;1.00
11650;DHT22;5881;48.522;7.682;2022-08-21T08:03:51;29.80;1.00
11650;DHT22;5881;48.522;7.682;2022-08-21T08:06:17;28.80;1.00
11650;DHT22;5881;48.522;7.682;2022-08-21T08:08:44;30.00;1.00
11650;DHT22;5881;48.522;7.682;2022-08-21T08:11:10;30.20;1.00
11650;DHT22;5881;48.522;7.682;2022-08-21T08:13:43;31.70;1.00
11650;DHT22;5881;48.522;7.682;2022-08-21T08:16:09;31.60;1.00
11650;DHT22;5881;48.522;7.682;2022-08-21T08:18:35;31.10;1.00
11650;DHT22;5881;48.522;7.682;2022-08-21T08:21:00;32.00;1.00
11650;DHT22;5881;48.522;7.682;2022-08-21T08:23:26;32.10;1.00
11650;DHT22;5881;48.522;7.682;2022-08-21T08:25:52;31.40;1.00
11650;DHT22;5881;48.522;7.682;2022-08-21T08:28:18;30.30;1.00
11650;DHT22;5881;48.522;7.682;2022-08-21T08:30:47;30.40;1.00
11650;DHT22;5881;48.522;7.682;2022-08-21T08:33:13;31.20;1.00
11650;DHT22;5881;48.522;7.682;2022-08-21T08:35:41;31.80;1.00
11650;DHT22;5881;48.522;7.682;2022-08-21T08:38:07;32.90;1.00
11650;DHT22;5881;48.522;7.682;2022-08-21T08:40:44;31.70;1.00
11650;DHT22;5881;48.522;7.682;2022-08-21T08:43:12;31.10;1.00
11650;DHT22;5881;48.522;7.682;2022-08-21T08:45:40;32.10;1.00
11650;DHT22;5881;48.522;7.682;2022-08-21T08:48:09;31.20;1.00
11650;DHT22;5881;48.522;7.682;2022-08-21T08:50:54;31.50;1.00
11650;DHT22;5881;48.522;7.682;2022-08-21T08:53:45;30.80;1.00
11650;DHT22;5881;48.522;7.682;2022-08-21T08:56:13;31.50;1.00
11650;DHT22;5881;48.522;7.682;2022-08-21T08:58:41;31.80;1.00
11650;DHT22;5881;48.522;7.682;2022-08-21T09:01:18;32.60;1.00
11650;DHT22;5881;48.522;7.682;2022-08-21T09:03:45;32.80;1.00
11650;DHT22;5881;48.522;7.682;2022-08-21T09:06:43;32.50;1.00
11650;DHT22;5881;48.522;7.682;2022-08-21T09:09:25;32.80;1.00
11650;DHT22;5881;48.522;7.682;2022-08-21T09:14:47;33.70;1.00
11650;DHT22;5881;48.522;7.682;2022-08-21T09:25:18;33.40;1.00
11650;DHT22;5881;48.522;7.682;2022-08-21T09:27:45;32.10;1.00
11650;DHT22;5881;48.522;7.682;2022-08-21T09:30:11;32.20;1.00
11650;DHT22;5881;48.522;7.682;2022-08-21T09:32:38;32.40;1.00
11650;DHT22;5881;48.522;7.682;2022-08-21T09:35:20;33.40;1.00
11650;DHT22;5881;48.522;7.682;2022-08-21T09:40:30;32.90;1.00
11650;DHT22;5881;48.522;7.682;2022-08-21T09:45:33;32.40;1.00
11650;DHT22;5881;48.522;7.682;2022-08-21T09:48:12;32.00;1.00
11650;DHT22;5881;48.522;7.682;2022-08-21T09:50:39;33.80;1.00
11650;DHT22;5881;48.522;7.682;2022-08-21T09:53:22;33.60;1.00
11650;DHT22;5881;48.522;7.682;2022-08-21T09:55:55;32.30;1.00
11650;DHT22;5881;48.522;7.682;2022-08-21T09:58:42;33.10;1.00
11650;DHT22;5881;48.522;7.682;2022-08-21T10:01:18;33.40;1.00
11650;DHT22;5881;48.522;7.682;2022-08-21T10:03:45;33.70;1.00
11650;DHT22;5881;48.522;7.682;2022-08-21T10:06:22;33.20;1.00
11650;DHT22;5881;48.522;7.682;2022-08-21T10:08:48;33.50;1.00
11650;DHT22;5881;48.522;7.682;2022-08-21T10:11:15;34.30;1.00
11650;DHT22;5881;48.522;7.682;2022-08-21T10:19:26;33.40;1.00
11650;DHT22;5881;48.522;7.682;2022-08-21T10:29:59;33.70;1.00
11650;DHT22;5881;48.522;7.682;2022-08-21T10:35:13;33.10;1.00
11650;DHT22;5881;48.522;7.682;2022-08-21T10:37:55;33.10;1.00
11650;DHT22;5881;48.522;7.682;2022-08-21T10:40:54;34.00;1.00
11650;DHT22;5881;48.522;7.682;2022-08-21T10:48:59;34.50;1.00
11650;DHT22;5881;48.522;7.682;2022-08-21T10:51:38;35.40;1.00
11650;DHT22;5881;48.522;7.682;2022-08-21T10:57:19;34.30;1.00
11650;DHT22;5881;48.522;7.682;2022-08-21T10:59:55;34.60;1.00
11650;DHT22;5881;48.522;7.682;2022-08-21T11:02:30;34.90;1.00
11650;DHT22;5881;48.522;7.682;2022-08-21T11:05:11;35.00;1.00
11650;DHT22;5881;48.522;7.682;2022-08-21T11:10:43;34.00;1.00
11650;DHT22;5881;48.522;7.682;2022-08-21T11:18:41;32.20;1.00
11650;DHT22;5881;48.522;7.682;2022-08-21T11:24:14;33.60;1.00
11650;DHT22;5881;48.522;7.682;2022-08-21T11:26:51;33.30;1.00
11650;DHT22;5881;48.522;7.682;2022-08-21T11:29:23;33.50;1.00
11650;DHT22;5881;48.522;7.682;2022-08-21T11:32:00;33.00;1.00
11650;DHT22;5881;48.522;7.682;2022-08-21T11:50:37;31.00;1.00
11650;DHT22;5881;48.522;7.682;2022-08-21T11:53:13;30.90;1.00
11650;DHT22;5881;48.522;7.682;2022-08-21T11:55:51;31.90;1.00
11650;DHT22;5881;48.522;7.682;2022-08-21T11:58:32;31.20;1.00
11650;DHT22;5881;48.522;7.682;2022-08-21T12:01:03;30.90;1.00
11650;DHT22;5881;48.522;7.682;2022-08-21T12:03:34;31.30;1.00
11650;DHT22;5881;48.522;7.682;2022-08-21T12:06:10;30.80;1.00
11650;DHT22;5881;48.522;7.682;2022-08-21T12:08:41;30.40;1.00
11650;DHT22;5881;48.522;7.682;2022-08-21T12:14:12;29.70;1.00
11650;DHT22;5881;48.522;7.682;2022-08-21T12:16:41;30.50;1.00
11650;DHT22;5881;48.522;7.682;2022-08-21T12:27:18;30.40;1.00
11650;DHT22;5881;48.522;7.682;2022-08-21T12:29:54;30.40;1.00
11650;DHT22;5881;48.522;7.682;2022-08-21T12:32:27;30.30;1.00
11650;DHT22;5881;48.522;7.682;2022-08-21T12:35:06;30.40;1.00
11650;DHT22;5881;48.522;7.682;2022-08-21T12:40:26;29.80;1.00
11650;DHT22;5881;48.522;7.682;2022-08-21T12:42:55;30.10;1.00
11650;DHT22;5881;48.522;7.682;2022-08-21T12:45:31;30.00;1.00
11650;DHT22;5881;48.522;7.682;2022-08-21T12:50:54;30.20;1.00
11650;DHT22;5881;48.522;7.682;2022-08-21T12:53:26;29.50;1.00
11650;DHT22;5881;48.522;7.682;2022-08-21T12:55:54;29.90;1.00
11650;DHT22;5881;48.522;7.682;2022-08-21T12:58:25;30.20;1.00
11650;DHT22;5881;48.522;7.682;2022-08-21T13:00:54;30.20;1.00
11650;DHT22;5881;48.522;7.682;2022-08-21T13:03:22;30.40;1.00
11650;DHT22;5881;48.522;7.682;2022-08-21T13:05:48;30.50;1.00
11650;DHT22;5881;48.522;7.682;2022-08-21T13:08:18;29.70;1.00
11650;DHT22;5881;48.522;7.682;2022-08-21T13:10:47;29.70;1.00
11650;DHT22;5881;48.522;7.682;2022-08-21T13:13:22;29.70;1.00
11650;DHT22;5881;48.522;7.682;2022-08-21T13:15:48;30.00;1.00
11650;DHT22;5881;48.522;7.682;2022-08-21T13:18:23;29.50;1.00
11650;DHT22;5881;48.522;7.682;2022-08-21T13:20:51;29.60;1.00
11650;DHT22;5881;48.522;7.682;2022-08-21T13:23:29;29.30;1.00
11650;DHT22;5881;48.522;7.682;2022-08-21T13:25:55;29.40;1.00
11650;DHT22;5881;48.522;7.682;2022-08-21T13:28:21;29.20;1.00
11650;DHT22;5881;48.522;7.682;2022-08-21T13:33:19;29.20;1.00
11650;DHT22;5881;48.522;7.682;2022-08-21T13:36:14;29.30;1.00
11650;DHT22;5881;48.522;7.682;2022-08-21T13:38:42;28.70;1.00
11650;DHT22;5881;48.522;7.682;2022-08-21T13:41:29;29.20;1.00
11650;DHT22;5881;48.522;7.682;2022-08-21T13:44:17;29.20;1.00
11650;DHT22;5881;48.522;7.682;2022-08-21T13:46:44;28.90;1.00
11650;DHT22;5881;48.522;7.682;2022-08-21T13:49:15;28.90;1.00
11650;DHT22;5881;48.522;7.682;2022-08-21T13:51:41;29.00;1.00
11650;DHT22;5881;48.522;7.682;2022-08-21T13:54:20;28.80;1.00
11650;DHT22;5881;48.522;7.682;2022-08-21T13:56:47;28.40;1.00
11650;DHT22;5881;48.522;7.682;2022-08-21T13:59:30;28.20;1.00
11650;DHT22;5881;48.522;7.682;2022-08-21T14:04:37;28.30;1.00
11650;DHT22;5881;48.522;7.682;2022-08-21T14:07:18;28.40;1.00
11650;DHT22;5881;48.522;7.682;2022-08-21T14:09:46;28.70;1.00
11650;DHT22;5881;48.522;7.682;2022-08-21T14:12:27;29.10;1.00
11650;DHT22;5881;48.522;7.682;2022-08-21T14:14:55;29.10;1.00
11650;DHT22;5881;48.522;7.682;2022-08-21T14:17:35;28.90;1.00
11650;DHT22;5881;48.522;7.682;2022-08-21T14:20:08;28.60;1.00
11650;DHT22;5881;48.522;7.682;2022-08-21T14:22:43;28.60;1.00
11650;DHT22;5881;48.522;7.682;2022-08-21T14:30:28;28.60;1.00
11650;DHT22;5881;48.522;7.682;2022-08-21T14:32:54;28.70;1.00
11650;DHT22;5881;48.522;7.682;2022-08-21T14:35:20;28.70;1.00
11650;DHT22;5881;48.522;7.682;2022-08-21T14:37:47;28.80;1.00
11650;DHT22;5881;48.522;7.682;2022-08-21T14:40:16;29.10;1.00
11650;DHT22;5881;48.522;7.682;2022-08-21T14:42:42;28.80;1.00
11650;DHT22;5881;48.522;7.682;2022-08-21T14:45:18;28.60;1.00
11650;DHT22;5881;48.522;7.682;2022-08-21T14:47:45;28.60;1.00
11650;DHT22;5881;48.522;7.682;2022-08-21T14:50:12;28.40;1.00
11650;DHT22;5881;48.522;7.682;2022-08-21T14:52:38;28.10;1.00
11650;DHT22;5881;48.522;7.682;2022-08-21T14:55:05;28.10;1.00
11650;DHT22;5881;48.522;7.682;2022-08-21T14:57:33;28.00;1.00
11650;DHT22;5881;48.522;7.682;2022-08-21T15:00:00;28.10;1.00
11650;DHT22;5881;48.522;7.682;2022-08-21T15:02:26;28.20;1.00
11650;DHT22;5881;48.522;7.682;2022-08-21T15:04:51;28.10;1.00
11650;DHT22;5881;48.522;7.682;2022-08-21T15:07:17;28.10;1.00
11650;DHT22;5881;48.522;7.682;2022-08-21T15:09:43;28.30;1.00
11650;DHT22;5881;48.522;7.682;2022-08-21T15:12:08;28.40;1.00
11650;DHT22;5881;48.522;7.682;2022-08-21T15:14:38;28.30;1.00
11650;DHT22;5881;48.522;7.682;2022-08-21T15:17:07;28.30;1.00
11650;DHT22;5881;48.522;7.682;2022-08-21T15:19:33;28.20;1.00
11650;DHT22;5881;48.522;7.682;2022-08-21T15:21:58;28.10;1.00
11650;DHT22;5881;48.522;7.682;2022-08-21T15:24:24;28.00;1.00
11650;DHT22;5881;48.522;7.682;2022-08-21T15:26:50;27.80;1.00
11650;DHT22;5881;48.522;7.682;2022-08-21T15:29:16;27.70;1.00
11650;DHT22;5881;48.522;7.682;2022-08-21T15:32:03;27.70;1.00
11650;DHT22;5881;48.522;7.682;2022-08-21T15:34:39;27.70;1.00
11650;DHT22;5881;48.522;7.682;2022-08-21T15:37:05;27.60;1.00
11650;DHT22;5881;48.522;7.682;2022-08-21T15:39:34;27.50;1.00
11650;DHT22;5881;48.522;7.682;2022-08-21T15:42:00;27.40;1.00
11650;DHT22;5881;48.522;7.682;2022-08-21T15:44:27;27.50;1.00
11650;DHT22;5881;48.522;7.682;2022-08-21T15:46:53;27.60;1.00
11650;DHT22;5881;48.522;7.682;2022-08-21T15:49:19;27.60;1.00
11650;DHT22;5881;48.522;7.682;2022-08-21T15:51:45;27.60;1.00
11650;DHT22;5881;48.522;7.682;2022-08-21T15:54:10;27.50;1.00
11650;DHT22;5881;48.522;7.682;2022-08-21T15:56:38;27.50;1.00
11650;DHT22;5881;48.522;7.682;2022-08-21T15:59:08;27.50;1.00
11650;DHT22;5881;48.522;7.682;2022-08-21T16:01:38;27.50;1.00
11650;DHT22;5881;48.522;7.682;2022-08-21T16:04:04;27.50;1.00
11650;DHT22;5881;48.522;7.682;2022-08-21T16:06:30;27.50;1.00
11650;DHT22;5881;48.522;7.682;2022-08-21T16:08:56;27.40;1.00
11650;DHT22;5881;48.522;7.682;2022-08-21T16:11:21;27.40;1.00
11650;DHT22;5881;48.522;7.682;2022-08-21T16:13:48;27.50;1.00
11650;DHT22;5881;48.522;7.682;2022-08-21T16:16:20;27.50;1.00
11650;DHT22;5881;48.522;7.682;2022-08-21T16:18:47;27.40;1.00
11650;DHT22;5881;48.522;7.682;2022-08-21T16:21:13;27.30;1.00
11650;DHT22;5881;48.522;7.682;2022-08-21T16:23:39;27.30;1.00
11650;DHT22;5881;48.522;7.682;2022-08-21T16:26:07;27.30;1.00
11650;DHT22;5881;48.522;7.682;2022-08-21T16:28:35;27.10;1.00
11650;DHT22;5881;48.522;7.682;2022-08-21T16:31:02;27.00;1.00
11650;DHT22;5881;48.522;7.682;2022-08-21T16:33:33;27.00;1.00
11650;DHT22;5881;48.522;7.682;2022-08-21T16:35:59;27.00;1.00
11650;DHT22;5881;48.522;7.682;2022-08-21T16:38:26;26.90;1.00
11650;DHT22;5881;48.522;7.682;2022-08-21T16:40:53;26.70;1.00
11650;DHT22;5881;48.522;7.682;2022-08-21T16:43:22;26.70;1.00
11650;DHT22;5881;48.522;7.682;2022-08-21T16:45:49;26.60;1.00
11650;DHT22;5881;48.522;7.682;2022-08-21T16:48:15;26.60;1.00
11650;DHT22;5881;48.522;7.682;2022-08-21T16:50:40;26.40;1.00
11650;DHT22;5881;48.522;7.682;2022-08-21T16:53:06;26.30;1.00
11650;DHT22;5881;48.522;7.682;2022-08-21T16:55:37;26.20;1.00
11650;DHT22;5881;48.522;7.682;2022-08-21T16:58:11;26.10;1.00
11650;DHT22;5881;48.522;7.682;2022-08-21T17:00:40;26.10;1.00
11650;DHT22;5881;48.522;7.682;2022-08-21T17:03:05;26.00;1.00
11650;DHT22;5881;48.522;7.682;2022-08-21T17:05:31;26.00;1.00
11650;DHT22;5881;48.522;7.682;2022-08-21T17:07:57;26.00;1.00
11650;DHT22;5881;48.522;7.682;2022-08-21T17:10:22;25.90;1.00
11650;DHT22;5881;48.522;7.682;2022-08-21T17:12:53;25.80;1.00
11650;DHT22;5881;48.522;7.682;2022-08-21T17:15:25;25.80;1.00
11650;DHT22;5881;48.522;7.682;2022-08-21T17:17:51;25.80;1.00
11650;DHT22;5881;48.522;7.682;2022-08-21T17:20:18;25.60;1.00
11650;DHT22;5881;48.522;7.682;2022-08-21T17:22:44;25.60;1.00
11650;DHT22;5881;48.522;7.682;2022-08-21T17:25:09;25.50;1.00
11650;DHT22;5881;48.522;7.682;2022-08-21T17:27:35;25.40;1.00
11650;DHT22;5881;48.522;7.682;2022-08-21T17:30:01;25.30;1.00
11650;DHT22;5881;48.522;7.682;2022-08-21T17:32:27;25.30;1.00
11650;DHT22;5881;48.522;7.682;2022-08-21T17:34:54;25.30;1.00
11650;DHT22;5881;48.522;7.682;2022-08-21T17:37:20;25.30;1.00
11650;DHT22;5881;48.522;7.682;2022-08-21T17:39:46;25.20;1.00
11650;DHT22;5881;48.522;7.682;2022-08-21T17:42:12;25.20;1.00
11650;DHT22;5881;48.522;7.682;2022-08-21T17:44:40;25.10;1.00